Latest Weather Observations for Thredbo Top Station

IDN60901

Issued at 4:35 am EST Friday 25 April 2014 (issued every 10 minutes, with the page automatically refreshed every 10 minutes)

About weather observations | Map of Canberra area stations | Latest observations for Canberra area | Other Formats
Station Details ID: 071032 Name: THREDBO AWS Lat: -36.49 Lon: 148.29 Height: 1957.0 m
Data from the previous 72 hours. | See also: Recent months at Thredbo Top Station
Date/Time
EST
Tmp

°C
App
Tmp
°C
Dew
Point
°C
Rel
Hum
%
Delta-T

°C
Wind Press
QNH
hPa
Press
MSL
hPa
Rain
since
9 am
mm
Dir
 
Spd
km/h
Gust
km/h
Spd
kts
Gust
kts
25/04:30am 1.1 -7.3 -6.0 59 2.5 NW 30 39 16 21 1020.6 - 0.0
25/04:00am 1.2 -8.0 -8.6 48 3.2 NW 33 39 18 21 1020.6 1020.6 0.0
25/03:30am -0.8 -9.7 -11.8 43 3.1 NW 30 33 16 18 1020.8 - 0.0
25/03:00am -1.1 -9.0 -14.2 36 3.5 WNW 24 26 13 14 1020.8 1020.8 0.0
25/02:30am -0.2 -8.8 -13.8 35 3.7 NW 28 30 15 16 1020.8 - 0.0
25/02:00am -1.0 -10.1 -15.9 31 3.8 NW 30 32 16 17 1021.0 1020.9 0.0
25/01:30am -0.4 -5.6 -17.5 26 4.2 WNW 9 15 5 8 1021.2 - 0.0
25/01:00am 0.5 -5.9 -18.2 23 4.7 WNW 15 17 8 9 1021.3 1021.3 0.0
25/12:30am -0.6 -6.1 -16.0 30 4.0 W 11 15 6 8 1021.2 - 0.0
25/12:00am 1.2 -4.0 -17.1 24 4.8 W 9 13 5 7 1020.7 1020.7 0.0
 
Date/Time
EST
Tmp

°C
App
Tmp
°C
Dew
Point
°C
Rel
Hum
%
Delta-T

°C
Wind Press
QNH
hPa
Press
MSL
hPa
Rain
since
9 am
mm
Dir
 
Spd
km/h
Gust
km/h
Spd
kts
Gust
kts
24/11:30pm -0.3 -5.8 -15.7 30 4.0 W 11 13 6 7 1020.5 - 0.0
24/11:00pm -0.9 -7.0 -13.7 37 3.5 W 15 19 8 10 1020.8 1020.8 0.0
24/10:30pm -0.7 -5.3 -13.9 36 3.6 WNW 7 13 4 7 1021.1 - 0.0
24/10:00pm 2.2 -2.4 -17.3 22 5.2 S 6 9 3 5 1020.8 1020.8 0.0
24/09:30pm 0.0 -5.5 -10.2 46 3.1 W 13 17 7 9 1020.5 - 0.0
24/09:00pm -1.1 -5.3 -7.6 61 2.0 WNW 7 11 4 6 1020.6 1020.6 0.0
24/08:30pm 0.8 -3.8 -7.4 54 2.8 S 9 13 5 7 1020.2 - 0.0
24/08:00pm 0.8 -3.1 -4.4 68 1.9 SSW 7 11 4 6 1019.8 1019.7 0.0
24/07:30pm 1.6 -2.7 -2.0 77 1.4 WSW 11 15 6 8 1019.5 - 0.0
24/07:00pm 1.7 -4.6 -0.9 83 1.0 W 22 28 12 15 1019.1 1019.0 0.0
24/06:30pm 1.9 -4.3 0.0 87 0.8 W 22 30 12 16 1018.8 - 0.0
24/06:00pm 2.2 -3.3 0.3 87 0.8 WSW 19 28 10 15 1018.3 1018.2 0.0
24/05:30pm 2.8 -3.3 0.7 86 0.9 W 22 37 12 20 1017.8 - 0.0
24/05:00pm 3.5 -3.3 0.9 83 1.1 W 26 41 14 22 1017.1 1016.9 0.0
24/04:30pm 3.7 -4.7 1.7 87 0.9 W 35 56 19 30 1016.7 - 0.0
24/04:14pm 3.6 -4.7 2.3 91 0.6 W 35 54 19 29 1016.5 - 0.0
24/04:00pm 3.8 -4.9 2.0 88 0.8 W 37 54 20 29 1016.2 1016.0 0.0
24/03:30pm 4.0 -4.8 1.5 84 1.1 WSW 37 56 20 30 1016.0 - 0.0
24/03:00pm 4.0 -3.3 2.2 88 0.8 W 30 48 16 26 1015.8 1015.6 0.0
24/02:55pm 4.4 -2.6 2.1 85 1.0 W 28 46 15 25 1015.9 - 0.0
24/02:30pm 4.2 -3.7 2.2 87 0.9 W 33 48 18 26 1015.5 - 0.0
24/02:04pm 4.2 -3.6 1.7 84 1.1 W 32 56 17 30 1015.5 - 0.0
24/02:00pm 4.0 -3.4 1.7 85 1.0 WSW 30 46 16 25 1015.5 1015.3 0.0
24/01:30pm 4.3 -4.1 1.5 82 1.2 W 35 59 19 32 1015.4 - 0.0
24/01:09pm 4.6 -4.3 2.9 89 0.8 W 39 57 21 31 1015.2 - 0.0
24/01:00pm 3.9 -4.1 1.9 87 0.9 WSW 33 57 18 31 1015.2 1015.0 0.0
24/12:56pm 3.9 -4.4 1.9 87 0.9 WSW 35 57 19 31 1015.2 - 0.0
24/12:31pm 3.7 -6.1 2.2 90 0.7 W 43 61 23 33 1015.2 - 0.0
24/12:30pm 3.9 -6.1 2.1 88 0.8 W 44 61 24 33 1015.1 - 0.0
24/12:01pm 4.5 -5.6 1.7 82 1.2 W 44 65 24 35 1015.4 - 0.0
24/12:00pm 4.6 -5.2 2.0 83 1.1 W 43 59 23 32 1015.5 1015.3 0.0
24/11:30am 4.3 -5.1 2.2 86 0.9 W 41 61 22 33 1015.5 - 0.0
24/11:02am 5.3 -3.6 3.3 87 0.9 W 39 57 21 31 1015.2 - 0.0
24/11:00am 5.0 -4.4 2.4 83 1.2 WSW 41 57 22 31 1015.4 1015.2 0.0
24/10:30am 4.7 -4.0 1.9 82 1.2 W 37 56 20 30 1015.5 - 0.0
24/10:12am 4.8 -5.3 0.4 73 1.9 W 43 61 23 33 1015.4 - 0.0
24/10:00am 4.4 -5.8 -0.2 72 1.9 W 43 57 23 31 1015.4 1015.2 0.0
24/09:36am 4.0 -6.0 -1.8 66 2.3 W 41 59 22 32 1015.4 - 0.0
24/09:30am 3.6 -5.8 0.0 77 1.5 W 39 54 21 29 1015.2 - 0.0
24/09:00am 3.2 -6.8 1.1 86 0.9 WNW 43 61 23 33 1015.4 1015.2 1.6
24/08:30am 3.2 -6.5 3.1 99 0.0 W 43 65 23 35 1015.0 - 1.6
24/08:00am 2.8 -6.9 2.7 99 0.0 W 43 63 23 34 1014.8 1014.6 1.6
24/07:30am 4.0 -6.8 3.9 99 0.0 W 50 74 27 40 1014.1 - 1.6
24/07:00am 4.2 -5.8 4.1 99 0.0 W 46 69 25 37 1013.8 1013.5 1.6
24/06:30am 4.2 -7.0 4.1 99 0.0 W 52 83 28 45 1013.9 - 1.6
24/06:00am 4.2 -7.0 4.1 99 0.0 W 52 82 28 44 1013.5 1013.3 1.4
24/05:30am 3.9 -7.7 3.8 99 0.0 WNW 54 74 29 40 1013.4 - 1.4
24/05:00am 4.9 -6.1 4.8 99 0.0 W 52 76 28 41 1013.3 1013.0 1.4
24/04:30am 5.0 -6.0 4.9 99 0.0 W 52 72 28 39 1013.5 - 1.4
24/04:00am 5.2 -5.0 5.1 99 0.0 W 48 70 26 38 1013.4 1013.1 1.2
24/03:30am 5.1 -4.4 5.0 99 0.0 W 44 67 24 36 1013.4 - 1.2
24/03:00am 5.2 -5.0 5.1 99 0.0 W 48 78 26 42 1013.8 1013.5 1.2
24/02:30am 5.1 -4.8 5.0 99 0.0 W 46 74 25 40 1014.1 - 1.0
24/02:00am 5.0 -5.6 4.9 99 0.0 W 50 74 27 40 1014.3 1014.1 1.0
24/01:30am 5.2 -5.4 5.1 99 0.0 W 50 69 27 37 1014.6 - 1.0
24/01:00am 5.2 -5.8 5.1 99 0.0 W 52 78 28 42 1014.7 1014.4 1.0
24/12:30am 5.2 -6.2 5.1 99 0.0 W 54 76 29 41 1014.9 - 1.0
24/12:00am 4.8 -6.3 4.7 99 0.0 W 52 80 28 43 1015.2 1015.0 1.0
 
Date/Time
EST
Tmp

°C
App
Tmp
°C
Dew
Point
°C
Rel
Hum
%
Delta-T

°C
Wind Press
QNH
hPa
Press
MSL
hPa
Rain
since
9 am
mm
Dir
 
Spd
km/h
Gust
km/h
Spd
kts
Gust
kts
23/11:30pm 4.8 -6.4 4.1 95 0.3 W 52 76 28 41 1015.2 - 1.0
23/11:00pm 4.8 -5.2 4.5 98 0.1 W 46 70 25 38 1015.5 1015.3 1.0
23/10:30pm 5.0 -5.5 3.8 92 0.5 W 48 67 26 36 1015.8 - 1.0
23/10:03pm 5.0 -5.1 3.5 90 0.7 WNW 46 70 25 38 1015.9 - 1.0
23/10:00pm 4.9 -5.0 4.8 99 0.0 WNW 46 63 25 34 1015.9 1015.7 1.0
23/09:30pm 4.8 -6.1 3.5 91 0.6 WNW 50 70 27 38 1015.9 - 1.0
23/09:00pm 4.9 -5.9 4.0 94 0.4 WNW 50 72 27 39 1016.0 1015.9 1.0
23/08:30pm 4.9 -5.0 4.8 99 0.0 W 46 70 25 38 1016.2 - 1.0
23/08:00pm 5.1 -5.5 5.0 99 0.0 W 50 69 27 37 1016.3 1016.1 1.0
23/07:30pm 5.2 -4.1 5.1 99 0.0 W 43 69 23 37 1016.3 - 1.0
23/07:01pm 5.2 -5.4 5.1 99 0.0 WNW 50 70 27 38 1016.2 - 1.0
23/07:00pm 5.2 -5.8 5.1 99 0.0 WNW 52 67 28 36 1016.2 1016.0 1.0
23/06:30pm 5.1 -4.4 5.0 99 0.0 WNW 44 65 24 35 1016.0 - 1.0
23/06:00pm 5.2 -3.7 5.1 99 0.0 WNW 41 61 22 33 1015.9 1015.7 1.0
23/05:30pm 5.1 -3.8 5.0 99 0.0 WNW 41 61 22 33 1015.8 - 1.0
23/05:00pm 5.2 -4.1 5.1 99 0.0 W 43 63 23 34 1015.6 1015.4 1.0
23/04:30pm 5.3 -4.0 5.2 99 0.0 W 43 61 23 33 1015.5 - 1.0
23/04:00pm 5.4 -3.5 5.3 99 0.0 W 41 65 22 35 1015.4 1015.2 1.0
23/03:30pm 5.5 -2.6 5.4 99 0.0 W 37 61 20 33 1015.7 - 1.0
23/03:00pm 5.3 -2.1 5.2 99 0.0 W 33 54 18 29 1015.8 1015.6 1.0
23/02:36pm 5.6 -0.7 5.5 99 0.0 W 28 52 15 28 1016.0 - 1.0
23/02:30pm 5.6 -1.1 5.5 99 0.0 W 30 44 16 24 1016.2 - 1.0
23/02:00pm 5.5 -1.8 5.4 99 0.0 W 33 59 18 32 1016.3 1016.1 1.0
23/01:42pm 5.7 -1.9 5.6 99 0.0 W 35 54 19 29 1016.2 - 1.0
23/01:30pm 5.4 -3.8 5.3 99 0.0 WNW 43 56 23 30 1016.2 - 1.0
23/01:00pm 5.1 -5.9 5.0 99 0.0 WNW 52 67 28 36 1016.5 1016.3 1.0
23/12:30pm 5.1 -5.1 5.0 99 0.0 WNW 48 63 26 34 1016.8 - 1.0
23/12:00pm 5.2 -5.4 5.1 99 0.0 WNW 50 65 27 35 1017.5 1017.4 1.0
23/11:39am 4.9 -6.1 4.8 99 0.0 WNW 52 70 28 38 1018.0 - 1.0
23/11:30am 4.8 -7.0 4.7 99 0.0 WNW 56 72 30 39 1018.1 - 1.0
23/11:03am 4.7 -6.8 4.6 99 0.0 WNW 54 72 29 39 1018.4 - 1.0
23/11:00am 4.7 -7.1 4.6 99 0.0 WNW 56 72 30 39 1018.4 1018.3 1.0
23/10:38am 4.9 -6.9 4.8 99 0.0 WNW 56 74 30 40 1018.4 - 1.0
23/10:30am 5.0 -7.4 4.9 99 0.0 WNW 59 72 32 39 1018.4 - 1.0
23/10:00am 5.0 -4.9 4.9 99 0.0 WNW 46 65 25 35 1018.3 1018.2 0.8
23/09:58am 4.9 -4.4 4.8 99 0.0 WNW 43 61 23 33 1018.4 - 0.8
23/09:53am 4.6 -3.6 4.5 99 0.0 W 37 46 20 25 1019.1 - 0.8
23/09:30am 4.8 -8.0 4.7 99 0.0 WNW 61 80 33 43 1018.4 - 0.0
23/09:29am 4.7 -8.1 4.6 99 0.0 WNW 61 80 33 43 1018.4 - 0.0
23/09:00am 4.7 -8.9 4.6 99 0.0 WNW 65 78 35 42 1018.6 1018.5 10.0
23/08:30am 4.4 -8.4 4.3 99 0.0 WNW 61 76 33 41 1018.6 - 10.0
23/08:00am 4.3 -6.5 4.0 98 0.1 WNW 50 63 27 34 1018.6 1018.5 10.0
23/07:30am 3.8 -4.2 3.7 99 0.0 WNW 35 52 19 28 1018.8 - 10.0
23/07:00am 3.8 -4.7 3.4 97 0.2 WNW 37 61 20 33 1019.6 1019.5 7.8
23/06:34am 4.6 -4.1 4.0 96 0.3 W 39 57 21 31 1018.7 - 5.6
23/06:30am 4.6 -4.5 4.0 96 0.3 WNW 41 52 22 28 1018.3 - 5.6
23/06:20am 4.6 -4.5 4.2 97 0.2 WNW 41 59 22 32 1018.2 - 5.6
23/06:00am 4.0 -4.8 3.6 97 0.2 WNW 39 50 21 27 1018.8 1018.7 5.4
23/05:42am 3.6 -4.9 3.0 96 0.3 W 37 56 20 30 1019.5 - 5.2
23/05:30am 4.1 -6.1 3.2 94 0.4 WNW 46 57 25 31 1018.6 - 4.2
23/05:00am 4.1 -5.5 3.4 95 0.3 WNW 43 61 23 33 1018.9 1018.8 3.0
23/04:46am 4.4 -5.5 2.9 90 0.7 WNW 44 63 24 34 1018.9 - 1.6
23/04:30am 5.1 -6.6 3.1 87 0.9 WNW 54 69 29 37 1018.1 - 1.0
23/04:07am 5.5 -5.5 3.2 85 1.0 WNW 50 69 27 37 1018.1 - 0.6
23/04:00am 5.4 -6.7 3.1 85 1.0 WNW 56 69 30 37 1018.0 1017.9 0.6
23/03:30am 5.4 -6.7 3.4 87 0.9 WNW 56 70 30 38 1018.0 - 0.6
23/03:00am 5.4 -5.1 3.4 87 0.9 WNW 48 65 26 35 1018.2 1018.1 0.6
23/02:30am 5.2 -4.9 3.5 89 0.8 WNW 46 59 25 32 1018.4 - 0.4
23/02:00am 5.3 -5.6 3.5 88 0.8 WNW 50 59 27 32 1018.3 1018.2 0.4
23/01:30am 5.4 -4.7 3.6 88 0.8 WNW 46 57 25 31 1018.6 - 0.4
23/01:00am 5.4 -5.1 3.7 89 0.8 WNW 48 61 26 33 1018.8 1018.7 0.4
23/12:30am 5.0 -5.1 3.7 91 0.6 WNW 46 56 25 30 1019.2 - 0.4
23/12:00am 4.9 -4.8 3.7 92 0.5 WNW 44 57 24 31 1019.5 1019.4 0.4
 
Date/Time
EST
Tmp

°C
App
Tmp
°C
Dew
Point
°C
Rel
Hum
%
Delta-T

°C
Wind Press
QNH
hPa
Press
MSL
hPa
Rain
since
9 am
mm
Dir
 
Spd
km/h
Gust
km/h
Spd
kts
Gust
kts
22/11:30pm 5.0 -4.6 3.3 89 0.8 WNW 43 52 23 28 1019.2 - 0.0
22/11:00pm 5.3 -4.9 3.2 86 0.9 WNW 46 57 25 31 1019.5 1019.4 0.0
22/10:30pm 5.4 -5.2 3.3 86 1.0 WNW 48 57 26 31 1019.4 - 0.0
22/10:00pm 5.2 -4.6 3.1 86 0.9 WNW 44 54 24 29 1019.4 1019.3 0.0
22/09:30pm 5.6 -2.4 3.8 88 0.8 WNW 35 48 19 26 1019.4 - 0.0
22/09:00pm 5.6 -2.0 4.1 90 0.7 WNW 33 48 18 26 1019.4 1019.3 0.0
22/08:30pm 5.7 -2.7 3.5 86 1.0 WNW 37 50 20 27 1019.4 - 0.0
22/08:00pm 5.9 -2.6 3.4 84 1.1 WNW 37 50 20 27 1019.2 1019.2 0.0
22/07:30pm 6.0 -1.7 3.5 84 1.1 WNW 33 48 18 26 1019.4 - 0.0
22/07:02pm 6.2 -1.3 3.2 81 1.4 W 32 50 17 27 1019.1 - 0.0
22/07:00pm 6.1 -1.7 3.1 81 1.4 W 33 50 18 27 1019.1 1019.0 0.0
22/06:45pm 6.4 -2.1 2.9 78 1.6 W 37 56 20 30 1018.9 - 0.0
22/06:30pm 6.5 -1.7 2.6 76 1.8 W 35 48 19 26 1018.7 - 0.0
22/06:25pm 6.6 -1.3 2.5 75 1.8 W 33 52 18 28 1018.7 - 0.0
22/06:00pm 6.9 -1.7 2.6 74 1.9 W 37 52 20 28 1018.4 1018.3 0.0
22/05:38pm 7.1 -1.2 2.2 71 2.2 W 35 54 19 29 1018.2 - 0.0
22/05:30pm 7.3 -1.7 2.4 71 2.2 W 39 54 21 29 1018.2 - 0.0
22/05:04pm 7.6 -0.7 2.1 68 2.5 W 35 57 19 31 1018.1 - 0.0
22/05:00pm 7.5 -0.3 2.6 71 2.2 W 33 46 18 25 1018.0 1017.9 0.0
22/04:30pm 6.8 -0.9 3.6 80 1.5 W 33 46 18 25 1018.0 - 0.0
22/04:00pm 7.2 -0.4 4.0 80 1.5 W 33 46 18 25 1018.1 1018.0 0.0
22/03:30pm 6.5 -0.2 3.8 83 1.3 W 28 41 15 22 1018.6 - 0.0
22/03:00pm 6.6 -0.5 3.4 80 1.5 W 30 41 16 22 1018.7 1018.6 0.0
22/02:30pm 7.5 -0.1 3.0 73 2.1 W 32 44 17 24 1018.6 - 0.0
22/02:00pm 7.2 0.3 2.5 72 2.1 W 28 46 15 25 1018.8 1018.7 0.0
22/01:30pm 9.0 1.6 1.9 61 3.2 WNW 30 43 16 23 1018.7 - 0.0
22/01:00pm 8.7 1.2 -1.4 49 4.2 W 28 44 15 24 1019.0 1018.9 0.0
22/12:30pm 9.0 0.4 -4.2 39 5.2 WNW 32 44 17 24 1019.1 - 0.0
22/12:00pm 9.3 -0.2 -7.8 29 6.2 WNW 35 46 19 25 1019.5 1019.4 0.0
22/11:30am 9.4 0.3 -7.3 30 6.1 WNW 33 43 18 23 1019.6 - 0.0
22/11:00am 10.0 1.6 -2.3 42 5.1 WNW 32 44 17 24 1019.4 1019.3 0.0
22/10:30am 10.5 2.2 0.0 48 4.6 WNW 33 46 18 25 1019.5 - 0.0
22/10:00am 10.3 1.7 0.3 50 4.4 WNW 35 50 19 27 1019.8 1019.7 0.0
22/09:30am 9.9 1.2 -0.6 48 4.5 WNW 35 48 19 26 1020.4 - 0.0
22/09:00am 8.7 0.1 -4.5 39 5.1 WNW 32 41 17 22 1020.8 1020.8 0.0
22/08:30am 9.1 0.6 -1.6 47 4.5 WNW 33 44 18 24 1021.0 - 0.0
22/08:00am 6.8 -2.1 -5.5 41 4.6 WNW 33 46 18 25 1021.2 1021.2 0.0
22/07:30am 6.6 -1.8 -6.0 40 4.6 WNW 30 41 16 22 1021.1 - 0.0
22/07:00am 6.8 -1.8 -4.6 44 4.3 WNW 32 41 17 22 1020.7 1020.7 0.0
22/06:30am 6.5 -1.7 -4.3 46 4.1 WNW 30 37 16 20 1020.6 - 0.0
22/06:00am 6.9 -0.6 -1.7 54 3.5 WNW 28 35 15 19 1020.5 1020.5 0.0
22/05:30am 6.9 -0.5 -0.8 58 3.2 WNW 28 37 15 20 1020.4 - 0.0
22/05:00am 7.2 -0.5 0.0 60 3.1 WNW 30 37 16 20 1020.2 1020.1 0.0

Latest Capital City Observations: Canberra | Sydney | Melbourne | Brisbane | Adelaide | Perth | Hobart | Darwin

Other Formats:

Comma delimited format used in spreadsheet applications
http://www.bom.gov.au/fwo/IDN60903/IDN60903.95909.axf

JavaScript Object Notation format (JSON) in row-major order
http://www.bom.gov.au/fwo/IDN60903/IDN60903.95909.json